Sunday, February 25, 2018, 3:33 AM GMT
Back to Local

CWIT, Saint Clothilde Automated Reporting Station

Location: , , Canada Lat: 45.167
Local Time: 3:33 AM GMT ( 3:33 GMT) Lon: -73.683
Time Zone: GMT Elev: 170 ft

Show me the last for .
Show Coded

Time T Td Feel RH Dir Speed Gust Alt SLP Vis Weather Sky Remarks
2018-02-25 03:00 25 23 - 92 20° 1 - - 30.30 0 None
2018-02-25 02:00 26 24 - 92 310° 1 - - 30.29 0 None
2018-02-25 01:00 27 23 - 87 300° 1 - - 30.28 0 None
2018-02-25 00:00 29 25 - 84 320° 2 - - 30.25 0 None
2018-02-24 23:00 31 26 - 79 310° 2 - - 30.24 0 None
2018-02-24 22:00 34 24 31 66 300° 3 - - 30.23 0 None
2018-02-24 21:00 35 24 29 63 290° 7 - - 30.23 0 None
2018-02-24 20:00 36 25 31 65 300° 6 - - 30.21 0 None
2018-02-24 19:00 36 26 29 67 310° 9 - - 30.20 0 None
2018-02-24 18:00 37 26 31 65 300° 7 - - 30.19 0 None
2018-02-24 17:00 37 27 31 67 300° 9 - - 30.18 0 None
2018-02-24 16:00 37 28 32 69 300° 7 - - 30.16 0 None
2018-02-24 15:00 37 29 32 71 290° 7 - - 30.15 0 None
2018-02-24 14:00 38 30 31 73 300° 10 - - 30.13 0 None
2018-02-24 13:00 38 32 32 78 270° 8 - - 30.09 0 None
2018-02-24 12:00 38 33 29 80 280° 9 17 - 30.06 0 None
2018-02-24 11:00 38 33 34 81 270° 6 - - 30.04 0 None
2018-02-24 10:00 39 34 34 83 270° 7 - - 30.02 0 None
2018-02-24 09:00 39 35 33 84 270° 9 - - 30.01 0 Peak wind: 20 mph (18 kts) from 260° at 00 min
2018-02-24 08:00 40 35 34 81 270° 8 - - 29.99 0 None
2018-02-24 07:00 40 38 32 89 270° 10 17 - 29.98 0 Peak wind: 20 mph (18 kts) from 270° at 47 min
2018-02-24 06:00 38 39 32 102 240° 8 - - 29.95 0 1-hr Precip Total: 0.01"
2018-02-24 05:00 34 33 31 97 250° 3 - - 29.95 0 1-hr Precip Total: 0.01"
2018-02-24 04:00 34 33 - 97 260° 2 - - 29.95 0 1-hr Precip Total: 0.02"

Support USWX by starting your Amazon purchase here.